sensor_id;sensor_type;location;lat;lon;timestamp;P1;durP1;ratioP1;P2;durP2;ratioP2
68593;SDS011;55563;52.416;13.548;2023-04-05T00:00:01;2.47;;;1.33;;
68593;SDS011;55563;52.416;13.548;2023-04-05T00:02:19;2.25;;;1.40;;
68593;SDS011;55563;52.416;13.548;2023-04-05T00:04:20;2.75;;;1.42;;
68593;SDS011;55563;52.416;13.548;2023-04-05T00:06:24;2.70;;;1.58;;
68593;SDS011;55563;52.416;13.548;2023-04-05T00:08:25;3.25;;;1.70;;
68593;SDS011;55563;52.416;13.548;2023-04-05T00:10:28;2.35;;;1.48;;
68593;SDS011;55563;52.416;13.548;2023-04-05T00:12:30;2.40;;;1.60;;
68593;SDS011;55563;52.416;13.548;2023-04-05T00:14:35;3.17;;;1.42;;
68593;SDS011;55563;52.416;13.548;2023-04-05T00:16:36;3.10;;;1.48;;
68593;SDS011;55563;52.416;13.548;2023-04-05T00:18:37;3.58;;;1.42;;
68593;SDS011;55563;52.416;13.548;2023-04-05T00:20:37;3.20;;;1.73;;
68593;SDS011;55563;52.416;13.548;2023-04-05T00:22:39;2.70;;;1.40;;
68593;SDS011;55563;52.416;13.548;2023-04-05T00:24:42;2.13;;;1.63;;
68593;SDS011;55563;52.416;13.548;2023-04-05T00:26:43;2.13;;;1.52;;
68593;SDS011;55563;52.416;13.548;2023-04-05T00:28:43;2.47;;;1.52;;
68593;SDS011;55563;52.416;13.548;2023-04-05T00:30:44;2.45;;;1.42;;
68593;SDS011;55563;52.416;13.548;2023-04-05T00:32:46;2.50;;;1.42;;
68593;SDS011;55563;52.416;13.548;2023-04-05T00:34:49;2.30;;;1.40;;
68593;SDS011;55563;52.416;13.548;2023-04-05T00:36:49;3.15;;;1.63;;
68593;SDS011;55563;52.416;13.548;2023-04-05T00:38:50;2.50;;;1.50;;
68593;SDS011;55563;52.416;13.548;2023-04-05T00:40:51;2.20;;;1.67;;
68593;SDS011;55563;52.416;13.548;2023-04-05T00:42:52;2.17;;;1.52;;
68593;SDS011;55563;52.416;13.548;2023-04-05T00:44:52;2.25;;;1.60;;
68593;SDS011;55563;52.416;13.548;2023-04-05T00:46:53;2.30;;;1.42;;
68593;SDS011;55563;52.416;13.548;2023-04-05T00:48:55;2.30;;;1.55;;
68593;SDS011;55563;52.416;13.548;2023-04-05T00:50:56;3.00;;;1.50;;
68593;SDS011;55563;52.416;13.548;2023-04-05T00:52:57;2.55;;;1.70;;
68593;SDS011;55563;52.416;13.548;2023-04-05T00:54:58;3.25;;;1.88;;
68593;SDS011;55563;52.416;13.548;2023-04-05T00:56:59;4.15;;;1.63;;
68593;SDS011;55563;52.416;13.548;2023-04-05T00:58:59;2.92;;;2.03;;
68593;SDS011;55563;52.416;13.548;2023-04-05T01:01:06;2.95;;;1.70;;
68593;SDS011;55563;52.416;13.548;2023-04-05T01:03:13;2.40;;;1.70;;
68593;SDS011;55563;52.416;13.548;2023-04-05T01:07:58;2.72;;;1.73;;
68593;SDS011;55563;52.416;13.548;2023-04-05T01:10:10;2.55;;;1.70;;
68593;SDS011;55563;52.416;13.548;2023-04-05T01:12:16;2.72;;;1.45;;
68593;SDS011;55563;52.416;13.548;2023-04-05T01:14:18;4.38;;;1.90;;
68593;SDS011;55563;52.416;13.548;2023-04-05T01:16:18;2.60;;;1.75;;
68593;SDS011;55563;52.416;13.548;2023-04-05T01:18:19;2.65;;;1.48;;
68593;SDS011;55563;52.416;13.548;2023-04-05T01:20:21;3.75;;;1.63;;
68593;SDS011;55563;52.416;13.548;2023-04-05T01:24:50;3.17;;;1.80;;
68593;SDS011;55563;52.416;13.548;2023-04-05T01:27:12;2.78;;;1.70;;
68593;SDS011;55563;52.416;13.548;2023-04-05T01:29:26;3.65;;;1.85;;
68593;SDS011;55563;52.416;13.548;2023-04-05T01:32:02;3.25;;;1.80;;
68593;SDS011;55563;52.416;13.548;2023-04-05T01:36:30;4.25;;;1.85;;
68593;SDS011;55563;52.416;13.548;2023-04-05T01:38:38;3.72;;;1.98;;
68593;SDS011;55563;52.416;13.548;2023-04-05T01:40:40;3.00;;;1.70;;
68593;SDS011;55563;52.416;13.548;2023-04-05T01:42:42;3.97;;;2.13;;
68593;SDS011;55563;52.416;13.548;2023-04-05T01:44:45;3.35;;;2.38;;
68593;SDS011;55563;52.416;13.548;2023-04-05T01:46:46;3.03;;;1.80;;
68593;SDS011;55563;52.416;13.548;2023-04-05T01:48:46;3.10;;;1.90;;
68593;SDS011;55563;52.416;13.548;2023-04-05T01:50:48;5.32;;;2.63;;
68593;SDS011;55563;52.416;13.548;2023-04-05T01:52:48;3.75;;;1.75;;
68593;SDS011;55563;52.416;13.548;2023-04-05T01:54:50;3.50;;;1.95;;
68593;SDS011;55563;52.416;13.548;2023-04-05T01:56:50;3.72;;;2.20;;
68593;SDS011;55563;52.416;13.548;2023-04-05T01:58:52;4.07;;;2.10;;
68593;SDS011;55563;52.416;13.548;2023-04-05T02:00:53;3.42;;;1.90;;
68593;SDS011;55563;52.416;13.548;2023-04-05T02:02:57;3.33;;;2.40;;
68593;SDS011;55563;52.416;13.548;2023-04-05T02:04:58;3.00;;;2.10;;
68593;SDS011;55563;52.416;13.548;2023-04-05T02:06:58;3.53;;;1.95;;
68593;SDS011;55563;52.416;13.548;2023-04-05T02:09:00;3.35;;;1.92;;
68593;SDS011;55563;52.416;13.548;2023-04-05T02:11:00;3.17;;;2.45;;
68593;SDS011;55563;52.416;13.548;2023-04-05T02:13:03;2.45;;;1.63;;
68593;SDS011;55563;52.416;13.548;2023-04-05T02:15:04;4.50;;;2.30;;
68593;SDS011;55563;52.416;13.548;2023-04-05T02:17:07;2.40;;;1.63;;
68593;SDS011;55563;52.416;13.548;2023-04-05T02:19:08;3.65;;;1.73;;
68593;SDS011;55563;52.416;13.548;2023-04-05T02:21:08;3.30;;;1.70;;
68593;SDS011;55563;52.416;13.548;2023-04-05T02:23:10;4.10;;;1.73;;
68593;SDS011;55563;52.416;13.548;2023-04-05T02:25:11;2.97;;;1.80;;
68593;SDS011;55563;52.416;13.548;2023-04-05T02:27:12;2.58;;;1.70;;
68593;SDS011;55563;52.416;13.548;2023-04-05T02:29:13;2.78;;;2.05;;
68593;SDS011;55563;52.416;13.548;2023-04-05T02:31:14;2.83;;;1.70;;
68593;SDS011;55563;52.416;13.548;2023-04-05T02:33:15;3.72;;;2.33;;
68593;SDS011;55563;52.416;13.548;2023-04-05T02:35:16;2.88;;;1.80;;
68593;SDS011;55563;52.416;13.548;2023-04-05T02:37:18;3.33;;;1.73;;
68593;SDS011;55563;52.416;13.548;2023-04-05T02:39:19;3.78;;;1.75;;
68593;SDS011;55563;52.416;13.548;2023-04-05T02:41:20;3.08;;;1.80;;
68593;SDS011;55563;52.416;13.548;2023-04-05T02:43:22;2.72;;;1.60;;
68593;SDS011;55563;52.416;13.548;2023-04-05T02:45:23;3.15;;;1.92;;
68593;SDS011;55563;52.416;13.548;2023-04-05T02:47:24;3.28;;;1.75;;
68593;SDS011;55563;52.416;13.548;2023-04-05T02:49:31;2.90;;;2.10;;
68593;SDS011;55563;52.416;13.548;2023-04-05T02:51:35;4.07;;;1.83;;
68593;SDS011;55563;52.416;13.548;2023-04-05T02:53:40;3.55;;;1.83;;
68593;SDS011;55563;52.416;13.548;2023-04-05T02:55:52;4.90;;;2.63;;
68593;SDS011;55563;52.416;13.548;2023-04-05T02:57:57;3.72;;;1.83;;
68593;SDS011;55563;52.416;13.548;2023-04-05T03:00:07;4.03;;;2.33;;
68593;SDS011;55563;52.416;13.548;2023-04-05T03:02:09;4.05;;;1.90;;
68593;SDS011;55563;52.416;13.548;2023-04-05T03:04:10;4.03;;;2.10;;
68593;SDS011;55563;52.416;13.548;2023-04-05T03:06:12;4.35;;;2.78;;
68593;SDS011;55563;52.416;13.548;2023-04-05T03:08:16;4.78;;;2.80;;
68593;SDS011;55563;52.416;13.548;2023-04-05T03:10:23;4.07;;;2.33;;
68593;SDS011;55563;52.416;13.548;2023-04-05T03:12:33;3.25;;;1.85;;
68593;SDS011;55563;52.416;13.548;2023-04-05T03:14:34;3.05;;;1.92;;
68593;SDS011;55563;52.416;13.548;2023-04-05T03:16:36;3.65;;;2.20;;
68593;SDS011;55563;52.416;13.548;2023-04-05T03:18:45;5.00;;;3.13;;
68593;SDS011;55563;52.416;13.548;2023-04-05T03:20:46;3.88;;;2.20;;
68593;SDS011;55563;52.416;13.548;2023-04-05T03:22:54;4.68;;;2.08;;
68593;SDS011;55563;52.416;13.548;2023-04-05T03:25:01;3.25;;;1.98;;
68593;SDS011;55563;52.416;13.548;2023-04-05T03:27:03;4.47;;;2.85;;
68593;SDS011;55563;52.416;13.548;2023-04-05T03:29:11;3.80;;;2.65;;
68593;SDS011;55563;52.416;13.548;2023-04-05T03:31:12;5.03;;;2.17;;
68593;SDS011;55563;52.416;13.548;2023-04-05T03:33:13;4.50;;;2.20;;
68593;SDS011;55563;52.416;13.548;2023-04-05T03:35:21;3.95;;;2.05;;
68593;SDS011;55563;52.416;13.548;2023-04-05T03:37:22;4.68;;;3.08;;
68593;SDS011;55563;52.416;13.548;2023-04-05T03:39:32;3.65;;;2.70;;
68593;SDS011;55563;52.416;13.548;2023-04-05T03:41:33;4.90;;;2.80;;
68593;SDS011;55563;52.416;13.548;2023-04-05T03:43:34;4.57;;;2.50;;
68593;SDS011;55563;52.416;13.548;2023-04-05T03:45:36;3.88;;;2.03;;
68593;SDS011;55563;52.416;13.548;2023-04-05T03:47:37;4.28;;;2.38;;
68593;SDS011;55563;52.416;13.548;2023-04-05T03:49:40;3.40;;;1.92;;
68593;SDS011;55563;52.416;13.548;2023-04-05T03:51:40;3.72;;;2.83;;
68593;SDS011;55563;52.416;13.548;2023-04-05T03:53:41;3.60;;;2.10;;
68593;SDS011;55563;52.416;13.548;2023-04-05T03:55:42;3.85;;;2.13;;
68593;SDS011;55563;52.416;13.548;2023-04-05T03:57:49;3.78;;;2.28;;
68593;SDS011;55563;52.416;13.548;2023-04-05T03:59:56;6.28;;;2.75;;
68593;SDS011;55563;52.416;13.548;2023-04-05T04:01:58;3.60;;;1.90;;
68593;SDS011;55563;52.416;13.548;2023-04-05T04:03:59;5.05;;;2.78;;
68593;SDS011;55563;52.416;13.548;2023-04-05T04:08:02;3.00;;;1.77;;
68593;SDS011;55563;52.416;13.548;2023-04-05T04:10:03;4.55;;;2.90;;
68593;SDS011;55563;52.416;13.548;2023-04-05T04:12:05;4.55;;;2.47;;
68593;SDS011;55563;52.416;13.548;2023-04-05T04:14:08;3.88;;;2.50;;
68593;SDS011;55563;52.416;13.548;2023-04-05T04:16:20;3.38;;;2.00;;
68593;SDS011;55563;52.416;13.548;2023-04-05T04:18:41;3.38;;;2.22;;
68593;SDS011;55563;52.416;13.548;2023-04-05T04:20:52;3.63;;;2.13;;
68593;SDS011;55563;52.416;13.548;2023-04-05T04:23:13;5.28;;;2.22;;
68593;SDS011;55563;52.416;13.548;2023-04-05T04:25:33;5.03;;;2.45;;
68593;SDS011;55563;52.416;13.548;2023-04-05T04:27:55;6.88;;;2.35;;
68593;SDS011;55563;52.416;13.548;2023-04-05T04:30:12;4.45;;;2.10;;
68593;SDS011;55563;52.416;13.548;2023-04-05T04:32:33;3.70;;;2.45;;
68593;SDS011;55563;52.416;13.548;2023-04-05T04:35:06;5.40;;;2.13;;
68593;SDS011;55563;52.416;13.548;2023-04-05T04:37:28;4.97;;;2.50;;
68593;SDS011;55563;52.416;13.548;2023-04-05T04:39:49;4.82;;;2.60;;
68593;SDS011;55563;52.416;13.548;2023-04-05T04:42:06;4.10;;;1.92;;
68593;SDS011;55563;52.416;13.548;2023-04-05T04:44:29;3.55;;;2.08;;
68593;SDS011;55563;52.416;13.548;2023-04-05T04:46:39;4.53;;;2.22;;
68593;SDS011;55563;52.416;13.548;2023-04-05T04:48:49;4.78;;;2.00;;
68593;SDS011;55563;52.416;13.548;2023-04-05T04:51:02;4.60;;;2.10;;
68593;SDS011;55563;52.416;13.548;2023-04-05T04:53:07;4.15;;;2.05;;
68593;SDS011;55563;52.416;13.548;2023-04-05T04:55:08;3.47;;;1.95;;
68593;SDS011;55563;52.416;13.548;2023-04-05T04:57:13;4.43;;;2.30;;
68593;SDS011;55563;52.416;13.548;2023-04-05T04:59:14;3.95;;;2.72;;
68593;SDS011;55563;52.416;13.548;2023-04-05T05:01:15;4.65;;;2.28;;
68593;SDS011;55563;52.416;13.548;2023-04-05T05:03:16;4.72;;;2.33;;
68593;SDS011;55563;52.416;13.548;2023-04-05T05:05:16;5.63;;;2.42;;
68593;SDS011;55563;52.416;13.548;2023-04-05T05:07:18;3.97;;;2.28;;
68593;SDS011;55563;52.416;13.548;2023-04-05T05:09:19;5.30;;;2.38;;
68593;SDS011;55563;52.416;13.548;2023-04-05T05:11:24;5.38;;;2.42;;
68593;SDS011;55563;52.416;13.548;2023-04-05T05:15:26;4.63;;;2.20;;
68593;SDS011;55563;52.416;13.548;2023-04-05T05:17:27;5.07;;;2.58;;
68593;SDS011;55563;52.416;13.548;2023-04-05T05:19:28;4.38;;;2.40;;
68593;SDS011;55563;52.416;13.548;2023-04-05T05:21:29;4.05;;;2.22;;
68593;SDS011;55563;52.416;13.548;2023-04-05T05:23:34;4.75;;;2.40;;
68593;SDS011;55563;52.416;13.548;2023-04-05T05:25:36;3.90;;;2.22;;
68593;SDS011;55563;52.416;13.548;2023-04-05T05:27:37;4.22;;;2.28;;
68593;SDS011;55563;52.416;13.548;2023-04-05T05:29:38;5.40;;;2.85;;
68593;SDS011;55563;52.416;13.548;2023-04-05T05:31:38;5.00;;;2.05;;
68593;SDS011;55563;52.416;13.548;2023-04-05T05:33:39;4.60;;;2.78;;
68593;SDS011;55563;52.416;13.548;2023-04-05T05:35:40;3.90;;;2.20;;
68593;SDS011;55563;52.416;13.548;2023-04-05T05:37:41;5.60;;;2.67;;
68593;SDS011;55563;52.416;13.548;2023-04-05T05:39:41;4.05;;;2.20;;
68593;SDS011;55563;52.416;13.548;2023-04-05T05:41:44;3.90;;;2.22;;
68593;SDS011;55563;52.416;13.548;2023-04-05T05:44:05;4.22;;;2.17;;
68593;SDS011;55563;52.416;13.548;2023-04-05T05:46:06;4.35;;;2.20;;
68593;SDS011;55563;52.416;13.548;2023-04-05T05:48:06;4.65;;;2.03;;
68593;SDS011;55563;52.416;13.548;2023-04-05T05:50:07;5.82;;;2.05;;
68593;SDS011;55563;52.416;13.548;2023-04-05T05:52:09;4.05;;;2.17;;
68593;SDS011;55563;52.416;13.548;2023-04-05T05:54:10;3.60;;;2.25;;
68593;SDS011;55563;52.416;13.548;2023-04-05T05:56:10;4.60;;;2.40;;
68593;SDS011;55563;52.416;13.548;2023-04-05T05:58:11;7.75;;;2.40;;
68593;SDS011;55563;52.416;13.548;2023-04-05T06:00:12;5.75;;;2.20;;
68593;SDS011;55563;52.416;13.548;2023-04-05T06:02:15;5.32;;;2.58;;
68593;SDS011;55563;52.416;13.548;2023-04-05T06:04:16;5.43;;;2.25;;
68593;SDS011;55563;52.416;13.548;2023-04-05T06:06:18;4.15;;;2.78;;
68593;SDS011;55563;52.416;13.548;2023-04-05T06:08:20;3.80;;;1.88;;
68593;SDS011;55563;52.416;13.548;2023-04-05T06:10:21;3.95;;;2.75;;
68593;SDS011;55563;52.416;13.548;2023-04-05T06:12:23;3.72;;;1.88;;
68593;SDS011;55563;52.416;13.548;2023-04-05T06:14:24;4.00;;;2.33;;
68593;SDS011;55563;52.416;13.548;2023-04-05T06:16:25;5.57;;;2.13;;
68593;SDS011;55563;52.416;13.548;2023-04-05T06:18:26;5.30;;;2.70;;
68593;SDS011;55563;52.416;13.548;2023-04-05T06:20:27;4.35;;;2.30;;
68593;SDS011;55563;52.416;13.548;2023-04-05T06:22:27;5.72;;;2.75;;
68593;SDS011;55563;52.416;13.548;2023-04-05T06:24:29;3.55;;;2.03;;
68593;SDS011;55563;52.416;13.548;2023-04-05T06:26:31;3.75;;;2.13;;
68593;SDS011;55563;52.416;13.548;2023-04-05T06:28:32;3.30;;;1.80;;
68593;SDS011;55563;52.416;13.548;2023-04-05T06:30:32;5.45;;;2.22;;
68593;SDS011;55563;52.416;13.548;2023-04-05T06:32:33;3.80;;;1.80;;
68593;SDS011;55563;52.416;13.548;2023-04-05T06:34:34;5.72;;;2.08;;
68593;SDS011;55563;52.416;13.548;2023-04-05T06:36:35;5.25;;;1.98;;
68593;SDS011;55563;52.416;13.548;2023-04-05T06:38:36;5.03;;;2.42;;
68593;SDS011;55563;52.416;13.548;2023-04-05T06:40:37;5.22;;;2.40;;
68593;SDS011;55563;52.416;13.548;2023-04-05T06:42:38;4.43;;;2.50;;
68593;SDS011;55563;52.416;13.548;2023-04-05T06:44:43;4.63;;;2.33;;
68593;SDS011;55563;52.416;13.548;2023-04-05T06:46:43;5.40;;;2.92;;
68593;SDS011;55563;52.416;13.548;2023-04-05T06:48:44;4.15;;;2.10;;
68593;SDS011;55563;52.416;13.548;2023-04-05T06:50:54;4.90;;;2.30;;
68593;SDS011;55563;52.416;13.548;2023-04-05T06:52:56;5.97;;;2.55;;
68593;SDS011;55563;52.416;13.548;2023-04-05T06:54:57;3.63;;;2.42;;
68593;SDS011;55563;52.416;13.548;2023-04-05T06:56:58;5.53;;;2.25;;
68593;SDS011;55563;52.416;13.548;2023-04-05T06:58:59;4.93;;;2.00;;
68593;SDS011;55563;52.416;13.548;2023-04-05T07:01:01;3.70;;;1.80;;
68593;SDS011;55563;52.416;13.548;2023-04-05T07:03:03;5.28;;;2.33;;
68593;SDS011;55563;52.416;13.548;2023-04-05T07:05:03;4.65;;;2.03;;
68593;SDS011;55563;52.416;13.548;2023-04-05T07:07:05;4.88;;;2.30;;
68593;SDS011;55563;52.416;13.548;2023-04-05T07:09:06;3.83;;;2.33;;
68593;SDS011;55563;52.416;13.548;2023-04-05T07:11:06;4.28;;;2.22;;
68593;SDS011;55563;52.416;13.548;2023-04-05T07:13:07;5.15;;;2.42;;
68593;SDS011;55563;52.416;13.548;2023-04-05T07:15:08;5.10;;;2.50;;
68593;SDS011;55563;52.416;13.548;2023-04-05T07:17:09;6.43;;;3.08;;
68593;SDS011;55563;52.416;13.548;2023-04-05T07:19:10;5.10;;;2.65;;
68593;SDS011;55563;52.416;13.548;2023-04-05T07:21:11;4.93;;;2.45;;
68593;SDS011;55563;52.416;13.548;2023-04-05T07:23:11;5.18;;;2.65;;
68593;SDS011;55563;52.416;13.548;2023-04-05T07:25:12;5.45;;;2.50;;
68593;SDS011;55563;52.416;13.548;2023-04-05T07:27:13;5.93;;;2.65;;
68593;SDS011;55563;52.416;13.548;2023-04-05T07:31:15;5.00;;;2.50;;
68593;SDS011;55563;52.416;13.548;2023-04-05T07:33:16;5.55;;;2.45;;
68593;SDS011;55563;52.416;13.548;2023-04-05T07:35:17;4.40;;;2.25;;
68593;SDS011;55563;52.416;13.548;2023-04-05T07:37:18;4.78;;;2.33;;
68593;SDS011;55563;52.416;13.548;2023-04-05T07:39:18;6.22;;;3.30;;
68593;SDS011;55563;52.416;13.548;2023-04-05T07:41:20;6.00;;;2.83;;
68593;SDS011;55563;52.416;13.548;2023-04-05T07:43:22;5.00;;;2.63;;
68593;SDS011;55563;52.416;13.548;2023-04-05T07:45:25;4.95;;;2.40;;
68593;SDS011;55563;52.416;13.548;2023-04-05T07:47:26;5.45;;;2.83;;
68593;SDS011;55563;52.416;13.548;2023-04-05T07:49:27;5.50;;;2.60;;
68593;SDS011;55563;52.416;13.548;2023-04-05T07:51:28;4.72;;;2.42;;
68593;SDS011;55563;52.416;13.548;2023-04-05T07:53:28;4.95;;;2.75;;
68593;SDS011;55563;52.416;13.548;2023-04-05T07:55:29;4.97;;;2.75;;
68593;SDS011;55563;52.416;13.548;2023-04-05T07:57:30;4.55;;;2.72;;
68593;SDS011;55563;52.416;13.548;2023-04-05T07:59:31;5.60;;;2.33;;
68593;SDS011;55563;52.416;13.548;2023-04-05T08:01:32;4.53;;;2.45;;
68593;SDS011;55563;52.416;13.548;2023-04-05T08:03:33;6.43;;;3.00;;
68593;SDS011;55563;52.416;13.548;2023-04-05T08:05:35;4.82;;;2.10;;
68593;SDS011;55563;52.416;13.548;2023-04-05T08:07:35;4.65;;;2.65;;
68593;SDS011;55563;52.416;13.548;2023-04-05T08:09:36;4.93;;;2.22;;
68593;SDS011;55563;52.416;13.548;2023-04-05T08:11:37;5.07;;;2.50;;
68593;SDS011;55563;52.416;13.548;2023-04-05T08:13:38;3.75;;;2.08;;
68593;SDS011;55563;52.416;13.548;2023-04-05T08:15:41;4.60;;;2.40;;
68593;SDS011;55563;52.416;13.548;2023-04-05T08:17:42;4.80;;;2.33;;
68593;SDS011;55563;52.416;13.548;2023-04-05T08:19:42;5.47;;;2.80;;
68593;SDS011;55563;52.416;13.548;2023-04-05T08:21:43;6.40;;;2.85;;
68593;SDS011;55563;52.416;13.548;2023-04-05T08:23:44;5.18;;;2.30;;
68593;SDS011;55563;52.416;13.548;2023-04-05T08:25:55;4.25;;;2.30;;
68593;SDS011;55563;52.416;13.548;2023-04-05T08:27:56;3.22;;;2.10;;
68593;SDS011;55563;52.416;13.548;2023-04-05T08:29:57;3.88;;;1.83;;
68593;SDS011;55563;52.416;13.548;2023-04-05T08:31:57;3.83;;;1.95;;
68593;SDS011;55563;52.416;13.548;2023-04-05T08:33:59;3.72;;;2.28;;
68593;SDS011;55563;52.416;13.548;2023-04-05T08:36:04;3.63;;;2.20;;
68593;SDS011;55563;52.416;13.548;2023-04-05T08:38:06;3.47;;;1.58;;
68593;SDS011;55563;52.416;13.548;2023-04-05T08:40:07;5.90;;;2.40;;
68593;SDS011;55563;52.416;13.548;2023-04-05T08:42:12;3.67;;;1.85;;
68593;SDS011;55563;52.416;13.548;2023-04-05T08:44:16;3.65;;;2.00;;
68593;SDS011;55563;52.416;13.548;2023-04-05T08:46:21;2.80;;;2.10;;
68593;SDS011;55563;52.416;13.548;2023-04-05T08:48:22;3.45;;;1.80;;
68593;SDS011;55563;52.416;13.548;2023-04-05T08:50:23;3.95;;;1.52;;
68593;SDS011;55563;52.416;13.548;2023-04-05T08:52:24;2.88;;;1.73;;
68593;SDS011;55563;52.416;13.548;2023-04-05T08:54:25;3.90;;;1.73;;
68593;SDS011;55563;52.416;13.548;2023-04-05T08:56:30;3.38;;;1.55;;
68593;SDS011;55563;52.416;13.548;2023-04-05T08:58:32;2.35;;;1.52;;
68593;SDS011;55563;52.416;13.548;2023-04-05T09:00:37;2.60;;;1.60;;
68593;SDS011;55563;52.416;13.548;2023-04-05T09:02:39;3.65;;;1.77;;
68593;SDS011;55563;52.416;13.548;2023-04-05T09:04:43;3.80;;;1.95;;
68593;SDS011;55563;52.416;13.548;2023-04-05T09:06:46;3.38;;;1.92;;
68593;SDS011;55563;52.416;13.548;2023-04-05T09:08:49;2.33;;;1.33;;
68593;SDS011;55563;52.416;13.548;2023-04-05T09:10:51;2.88;;;1.50;;
68593;SDS011;55563;52.416;13.548;2023-04-05T09:12:52;4.20;;;1.70;;
68593;SDS011;55563;52.416;13.548;2023-04-05T09:14:53;3.03;;;1.42;;
68593;SDS011;55563;52.416;13.548;2023-04-05T09:16:55;3.20;;;1.50;;
68593;SDS011;55563;52.416;13.548;2023-04-05T09:18:57;1.85;;;0.95;;
68593;SDS011;55563;52.416;13.548;2023-04-05T09:21:02;4.60;;;2.25;;
68593;SDS011;55563;52.416;13.548;2023-04-05T09:23:04;3.63;;;1.70;;
68593;SDS011;55563;52.416;13.548;2023-04-05T09:25:05;2.72;;;1.70;;
68593;SDS011;55563;52.416;13.548;2023-04-05T09:27:08;2.08;;;1.40;;
68593;SDS011;55563;52.416;13.548;2023-04-05T09:29:25;3.25;;;1.75;;
68593;SDS011;55563;52.416;13.548;2023-04-05T09:31:31;4.00;;;1.90;;
68593;SDS011;55563;52.416;13.548;2023-04-05T09:33:34;2.63;;;1.55;;
68593;SDS011;55563;52.416;13.548;2023-04-05T09:35:36;1.70;;;1.40;;
68593;SDS011;55563;52.416;13.548;2023-04-05T09:37:37;2.10;;;1.42;;
68593;SDS011;55563;52.416;13.548;2023-04-05T09:40:00;2.20;;;1.30;;
68593;SDS011;55563;52.416;13.548;2023-04-05T09:44:18;2.42;;;1.48;;
68593;SDS011;55563;52.416;13.548;2023-04-05T09:46:34;2.03;;;1.45;;
68593;SDS011;55563;52.416;13.548;2023-04-05T09:48:44;1.85;;;1.45;;
68593;SDS011;55563;52.416;13.548;2023-04-05T09:50:49;2.60;;;2.00;;
68593;SDS011;55563;52.416;13.548;2023-04-05T09:52:50;2.60;;;1.20;;
68593;SDS011;55563;52.416;13.548;2023-04-05T09:54:52;1.70;;;1.42;;
68593;SDS011;55563;52.416;13.548;2023-04-05T09:56:55;2.53;;;1.80;;
68593;SDS011;55563;52.416;13.548;2023-04-05T09:58:58;3.90;;;1.90;;
68593;SDS011;55563;52.416;13.548;2023-04-05T10:01:00;2.00;;;1.55;;
68593;SDS011;55563;52.416;13.548;2023-04-05T10:03:03;2.72;;;2.05;;
68593;SDS011;55563;52.416;13.548;2023-04-05T10:05:05;2.42;;;1.65;;
68593;SDS011;55563;52.416;13.548;2023-04-05T10:07:08;2.50;;;2.05;;
68593;SDS011;55563;52.416;13.548;2023-04-05T10:09:12;2.33;;;1.63;;
68593;SDS011;55563;52.416;13.548;2023-04-05T10:11:16;1.40;;;1.30;;
68593;SDS011;55563;52.416;13.548;2023-04-05T10:13:18;1.40;;;1.30;;
68593;SDS011;55563;52.416;13.548;2023-04-05T10:17:26;2.85;;;2.00;;
68593;SDS011;55563;52.416;13.548;2023-04-05T10:22:13;2.45;;;1.80;;
68593;SDS011;55563;52.416;13.548;2023-04-05T10:24:19;2.40;;;2.03;;
68593;SDS011;55563;52.416;13.548;2023-04-05T10:26:47;3.22;;;2.10;;
68593;SDS011;55563;52.416;13.548;2023-04-05T10:29:06;2.15;;;1.90;;
68593;SDS011;55563;52.416;13.548;2023-04-05T10:31:16;2.33;;;1.67;;
68593;SDS011;55563;52.416;13.548;2023-04-05T10:40:36;2.78;;;2.28;;
68593;SDS011;55563;52.416;13.548;2023-04-05T10:42:41;3.15;;;1.83;;
68593;SDS011;55563;52.416;13.548;2023-04-05T10:44:43;2.72;;;1.70;;
68593;SDS011;55563;52.416;13.548;2023-04-05T10:46:47;3.22;;;2.60;;
68593;SDS011;55563;52.416;13.548;2023-04-05T10:51:28;4.15;;;1.90;;
68593;SDS011;55563;52.416;13.548;2023-04-05T10:53:31;3.00;;;2.15;;
68593;SDS011;55563;52.416;13.548;2023-04-05T10:55:33;2.40;;;1.77;;
68593;SDS011;55563;52.416;13.548;2023-04-05T10:57:33;2.83;;;1.83;;
68593;SDS011;55563;52.416;13.548;2023-04-05T10:59:39;2.03;;;1.77;;
68593;SDS011;55563;52.416;13.548;2023-04-05T11:01:42;1.85;;;1.67;;
68593;SDS011;55563;52.416;13.548;2023-04-05T11:03:45;2.08;;;1.60;;
68593;SDS011;55563;52.416;13.548;2023-04-05T11:05:48;2.30;;;1.60;;
68593;SDS011;55563;52.416;13.548;2023-04-05T11:07:49;1.52;;;0.88;;
68593;SDS011;55563;52.416;13.548;2023-04-05T11:09:54;2.38;;;1.33;;
68593;SDS011;55563;52.416;13.548;2023-04-05T11:12:00;3.88;;;2.20;;
68593;SDS011;55563;52.416;13.548;2023-04-05T11:14:01;1.58;;;1.35;;
68593;SDS011;55563;52.416;13.548;2023-04-05T11:16:22;3.72;;;2.38;;
68593;SDS011;55563;52.416;13.548;2023-04-05T11:18:42;3.05;;;2.40;;
68593;SDS011;55563;52.416;13.548;2023-04-05T11:20:46;2.83;;;2.13;;
68593;SDS011;55563;52.416;13.548;2023-04-05T11:22:52;3.53;;;2.47;;
68593;SDS011;55563;52.416;13.548;2023-04-05T11:24:54;3.55;;;2.10;;
68593;SDS011;55563;52.416;13.548;2023-04-05T11:26:57;2.53;;;2.10;;
68593;SDS011;55563;52.416;13.548;2023-04-05T11:28:58;2.88;;;2.00;;
68593;SDS011;55563;52.416;13.548;2023-04-05T11:31:10;1.95;;;1.73;;
68593;SDS011;55563;52.416;13.548;2023-04-05T11:35:59;4.35;;;2.53;;
68593;SDS011;55563;52.416;13.548;2023-04-05T11:40:44;2.33;;;1.52;;
68593;SDS011;55563;52.416;13.548;2023-04-05T11:42:34;1.83;;;1.42;;
68593;SDS011;55563;52.416;13.548;2023-04-05T11:44:40;2.85;;;1.70;;
68593;SDS011;55563;52.416;13.548;2023-04-05T11:46:44;2.90;;;1.55;;
68593;SDS011;55563;52.416;13.548;2023-04-05T11:50:48;2.75;;;1.60;;
68593;SDS011;55563;52.416;13.548;2023-04-05T11:53:11;4.45;;;1.83;;
68593;SDS011;55563;52.416;13.548;2023-04-05T11:55:41;2.13;;;1.65;;
68593;SDS011;55563;52.416;13.548;2023-04-05T11:58:12;1.98;;;1.40;;
68593;SDS011;55563;52.416;13.548;2023-04-05T12:00:42;1.98;;;1.77;;
68593;SDS011;55563;52.416;13.548;2023-04-05T12:03:14;2.15;;;1.80;;
68593;SDS011;55563;52.416;13.548;2023-04-05T12:05:22;1.92;;;1.75;;
68593;SDS011;55563;52.416;13.548;2023-04-05T12:07:43;2.53;;;1.95;;
68593;SDS011;55563;52.416;13.548;2023-04-05T12:09:59;3.78;;;2.40;;
68593;SDS011;55563;52.416;13.548;2023-04-05T12:12:26;3.40;;;2.20;;
68593;SDS011;55563;52.416;13.548;2023-04-05T12:16:54;4.38;;;2.10;;
68593;SDS011;55563;52.416;13.548;2023-04-05T12:19:08;2.25;;;1.90;;
68593;SDS011;55563;52.416;13.548;2023-04-05T12:21:22;2.78;;;2.50;;
68593;SDS011;55563;52.416;13.548;2023-04-05T12:23:37;2.25;;;1.98;;
68593;SDS011;55563;52.416;13.548;2023-04-05T12:25:45;3.25;;;2.35;;
68593;SDS011;55563;52.416;13.548;2023-04-05T12:27:48;2.80;;;2.08;;
68593;SDS011;55563;52.416;13.548;2023-04-05T12:30:04;2.63;;;1.98;;
68593;SDS011;55563;52.416;13.548;2023-04-05T12:32:07;3.25;;;2.45;;
68593;SDS011;55563;52.416;13.548;2023-04-05T12:34:08;4.55;;;2.10;;
68593;SDS011;55563;52.416;13.548;2023-04-05T12:36:10;3.28;;;2.20;;
68593;SDS011;55563;52.416;13.548;2023-04-05T12:38:14;3.53;;;2.30;;
68593;SDS011;55563;52.416;13.548;2023-04-05T12:40:20;2.90;;;2.20;;
68593;SDS011;55563;52.416;13.548;2023-04-05T12:42:22;3.63;;;2.15;;
68593;SDS011;55563;52.416;13.548;2023-04-05T12:44:30;2.53;;;2.33;;
68593;SDS011;55563;52.416;13.548;2023-04-05T12:48:49;4.80;;;2.30;;
68593;SDS011;55563;52.416;13.548;2023-04-05T12:50:52;3.05;;;2.20;;
68593;SDS011;55563;52.416;13.548;2023-04-05T12:52:58;2.38;;;1.38;;
68593;SDS011;55563;52.416;13.548;2023-04-05T12:55:00;2.33;;;1.98;;
68593;SDS011;55563;52.416;13.548;2023-04-05T12:57:01;4.38;;;2.20;;
68593;SDS011;55563;52.416;13.548;2023-04-05T12:59:08;3.42;;;2.20;;